Time,TemperatureF,DewpointF,PressureIn,WindDirection,WindDirectionDegrees,WindSpeedMPH,WindSpeedGustMPH,Humidity,HourlyPrecipIn,Conditions,Clouds,dailyrainin,SoftwareType,DateUTC
2013-02-13 00:00:00,35.4,28.3,30.00,SW,225,2.5,3.8,75,0.00,,CLR,0.08,VWS V14.01,2013-02-13 05:00:00,
2013-02-13 01:27:00,42.6,18.8,30.03,South,180,0.0,0.0,38,0.00,,BKN150,0.00,VWS V14.01,2013-02-13 06:27:00,
2013-02-13 01:28:00,42.6,18.8,29.94,North,0,2.7,2.7,38,0.00,,BKN150,0.00,VWS V14.01,2013-02-13 06:28:00,
2013-02-13 01:33:00,43.0,20.3,29.94,NNE,22,2.5,5.6,40,0.00,,OVC100,0.00,VWS V14.01,2013-02-13 06:33:00,
2013-02-13 01:38:00,43.0,20.3,29.94,NE,45,3.4,5.6,40,0.00,,OVC100,0.00,VWS V14.01,2013-02-13 06:38:00,
2013-02-13 01:43:00,43.0,20.3,29.94,NNW,338,4.9,6.5,40,0.00,,OVC100,0.00,VWS V14.01,2013-02-13 06:43:00,
2013-02-13 01:48:00,43.0,19.7,29.94,ENE,68,2.7,6.7,39,0.00,,OVC100,0.00,VWS V14.01,2013-02-13 06:48:00,
2013-02-13 01:53:00,43.0,19.7,29.94,NNE,22,6.3,7.8,39,0.00,,OVC100,0.00,VWS V14.01,2013-02-13 06:53:00,
2013-02-13 01:58:00,43.0,19.7,29.94,NE,45,3.8,9.2,39,0.00,,OVC100,0.00,VWS V14.01,2013-02-13 06:58:00,
2013-02-13 02:03:00,43.0,19.7,29.94,NNW,338,2.5,9.2,39,0.00,,OVC085,0.00,VWS V14.01,2013-02-13 07:03:00,
2013-02-13 02:08:00,42.8,19.6,29.94,ENE,68,2.7,9.2,39,0.00,,OVC085,0.00,VWS V14.01,2013-02-13 07:08:00,
2013-02-13 02:13:00,42.8,19.6,29.94,NNE,22,2.5,9.2,39,0.00,,OVC085,0.00,VWS V14.01,2013-02-13 07:13:00,
2013-02-13 02:18:00,42.8,20.2,29.94,NNE,22,3.6,9.2,40,0.00,,OVC085,0.00,VWS V14.01,2013-02-13 07:18:00,
2013-02-13 02:23:00,42.6,20.0,29.94,NNW,338,2.5,9.2,40,0.00,,OVC085,0.00,VWS V14.01,2013-02-13 07:23:00,
2013-02-13 02:28:00,42.4,19.8,29.94,NNE,22,2.2,9.2,40,0.00,,OVC085,0.00,VWS V14.01,2013-02-13 07:28:00,
2013-02-13 02:33:00,42.4,19.8,29.94,NE,45,3.8,9.2,40,0.00,,OVC085,0.00,VWS V14.01,2013-02-13 07:33:00,
2013-02-13 02:38:00,42.3,19.7,29.91,NNE,22,4.3,9.8,40,0.00,,OVC085,0.00,VWS V14.01,2013-02-13 07:38:00,
2013-02-13 02:43:00,42.3,19.7,29.91,North,0,3.8,9.8,40,0.00,,OVC085,0.00,VWS V14.01,2013-02-13 07:43:00,
2013-02-13 02:48:00,42.3,19.7,29.91,NNE,22,3.6,9.8,40,0.00,,OVC085,0.00,VWS V14.01,2013-02-13 07:48:00,
2013-02-13 02:53:00,42.3,19.7,29.91,NE,45,2.5,9.8,40,0.00,,OVC085,0.00,VWS V14.01,2013-02-13 07:53:00,
2013-02-13 02:58:00,42.1,19.5,29.91,NNE,22,4.7,7.6,40,0.00,,OVC085,0.00,VWS V14.01,2013-02-13 07:58:00,
2013-02-13 03:03:00,42.1,19.5,29.91,NNW,338,2.9,7.6,40,0.00,,OVC085,0.00,VWS V14.01,2013-02-13 08:03:00,
2013-02-13 03:08:00,42.1,19.5,29.91,NE,45,7.4,7.6,40,0.00,,OVC085,0.00,VWS V14.01,2013-02-13 08:08:00,
2013-02-13 03:13:00,42.1,19.5,29.91,North,0,4.9,8.7,40,0.00,,OVC085,0.00,VWS V14.01,2013-02-13 08:13:00,
2013-02-13 03:18:00,41.9,19.4,29.91,North,0,4.3,9.0,40,0.00,,OVC085,0.00,VWS V14.01,2013-02-13 08:18:00,
2013-02-13 03:23:00,41.7,19.2,29.91,NNE,22,6.3,9.0,40,0.00,,OVC085,0.00,VWS V14.01,2013-02-13 08:23:00,
2013-02-13 03:28:00,41.7,19.2,29.91,NNE,22,2.5,10.3,40,0.00,,OVC085,0.00,VWS V14.01,2013-02-13 08:28:00,
2013-02-13 03:33:00,41.7,19.2,29.91,NNE,22,4.5,10.3,40,0.00,,OVC085,0.00,VWS V14.01,2013-02-13 08:33:00,
2013-02-13 03:38:00,41.5,19.0,29.91,NE,45,3.6,10.3,40,0.00,,OVC085,0.00,VWS V14.01,2013-02-13 08:38:00,
2013-02-13 03:43:00,41.5,19.6,29.91,NNE,22,2.5,10.3,41,0.00,,OVC085,0.00,VWS V14.01,2013-02-13 08:43:00,
2013-02-13 03:48:00,41.5,19.6,29.91,NNE,22,5.8,10.3,41,0.00,,OVC085,0.00,VWS V14.01,2013-02-13 08:48:00,
2013-02-13 03:53:00,41.2,19.3,29.88,NE,45,4.3,10.3,41,0.00,,OVC085,0.00,VWS V14.01,2013-02-13 08:53:00,
2013-02-13 03:58:00,41.2,19.3,29.88,NNE,22,5.4,7.4,41,0.00,,OVC085,0.00,VWS V14.01,2013-02-13 08:58:00,
2013-02-13 04:03:00,41.0,19.1,29.88,NE,45,8.5,8.7,41,0.00,,OVC080,0.00,VWS V14.01,2013-02-13 09:03:00,
2013-02-13 04:08:00,40.8,19.5,29.85,North,0,7.8,10.3,42,0.00,,OVC080,0.00,VWS V14.01,2013-02-13 09:08:00,
2013-02-13 04:13:00,40.8,19.5,29.85,NNE,22,4.3,12.3,42,0.00,,OVC080,0.00,VWS V14.01,2013-02-13 09:13:00,
2013-02-13 04:18:00,40.6,19.4,29.85,NNE,22,6.5,12.3,42,0.00,,OVC080,0.00,VWS V14.01,2013-02-13 09:18:00,
2013-02-13 04:23:00,40.6,19.4,29.85,NNE,22,3.6,12.3,42,0.00,,OVC080,0.00,VWS V14.01,2013-02-13 09:23:00,
2013-02-13 04:28:00,40.5,19.7,29.85,NNW,338,3.4,12.3,43,0.00,,OVC080,0.00,VWS V14.01,2013-02-13 09:28:00,
2013-02-13 04:33:00,40.3,19.6,29.85,North,0,7.6,12.3,43,0.00,,OVC080,0.00,VWS V14.01,2013-02-13 09:33:00,
2013-02-13 04:37:00,40.3,19.6,29.85,North,0,5.4,12.3,43,0.00,,OVC080,0.00,VWS V14.01,2013-02-13 09:37:00,
2013-02-13 04:42:00,40.3,20.1,29.85,NNE,22,3.6,12.3,44,0.00,,OVC080,0.00,VWS V14.01,2013-02-13 09:42:00,
2013-02-13 04:47:00,40.1,20.0,29.85,NNE,22,4.9,12.3,44,0.00,,OVC080,0.00,VWS V14.01,2013-02-13 09:47:00,
2013-02-13 04:52:00,40.1,20.0,29.85,ENE,68,4.0,12.3,44,0.00,,OVC080,0.00,VWS V14.01,2013-02-13 09:52:00,
2013-02-13 04:57:00,39.9,19.8,29.85,NNE,22,3.4,3.4,44,0.00,,OVC080,0.00,VWS V14.01,2013-02-13 09:57:00,
2013-02-13 05:02:00,39.9,20.3,29.85,NNE,22,5.8,9.8,45,0.00,,BKN070,0.00,VWS V14.01,2013-02-13 10:02:00,
2013-02-13 05:07:00,39.7,20.1,29.85,East,90,5.8,9.8,45,0.00,,BKN070,0.00,VWS V14.01,2013-02-13 10:07:00,
2013-02-13 05:12:00,39.7,20.7,29.85,NNE,22,8.5,9.8,46,0.00,,BKN070,0.00,VWS V14.01,2013-02-13 10:12:00,
2013-02-13 05:17:00,39.6,21.0,29.85,NNE,22,6.5,9.8,47,0.00,,BKN070,0.00,VWS V14.01,2013-02-13 10:17:00,
2013-02-13 05:22:00,39.4,20.8,29.85,NE,45,5.6,9.8,47,0.00,,BKN070,0.00,VWS V14.01,2013-02-13 10:22:00,
2013-02-13 05:27:00,39.4,21.3,29.88,NNE,22,5.4,9.8,48,0.00,,BKN070,0.00,VWS V14.01,2013-02-13 10:27:00,
2013-02-13 05:32:00,39.4,21.8,29.88,NNE,22,6.3,13.0,49,0.00,,BKN070,0.00,VWS V14.01,2013-02-13 10:32:00,
2013-02-13 05:37:00,39.2,21.2,29.85,NNE,22,6.5,13.0,48,0.00,,BKN070,0.00,VWS V14.01,2013-02-13 10:37:00,
2013-02-13 05:43:00,39.2,21.7,29.85,NNE,22,4.9,13.0,49,0.00,,BKN070,0.00,VWS V14.01,2013-02-13 10:43:00,
2013-02-13 05:47:00,39.2,21.7,29.85,NNE,22,6.3,13.0,49,0.00,,BKN070,0.00,VWS V14.01,2013-02-13 10:47:00,
2013-02-13 05:52:00,39.0,22.0,29.82,NNE,22,3.1,13.0,50,0.00,,BKN070,0.00,VWS V14.01,2013-02-13 10:52:00,
2013-02-13 05:57:00,39.0,22.0,29.82,NE,45,4.0,7.2,50,0.00,,BKN070,0.00,VWS V14.01,2013-02-13 10:57:00,
2013-02-13 06:02:00,39.0,21.5,29.82,East,90,4.0,7.2,49,0.00,,SCT043,0.00,VWS V14.01,2013-02-13 11:02:00,
2013-02-13 06:07:00,38.8,21.8,29.82,NNE,22,2.5,7.6,50,0.00,,SCT043,0.00,VWS V14.01,2013-02-13 11:07:00,
2013-02-13 06:12:00,38.8,21.8,29.85,NE,45,2.5,7.6,50,0.00,,SCT043,0.00,VWS V14.01,2013-02-13 11:12:00,
2013-02-13 06:17:00,38.7,21.6,29.85,NNE,22,4.0,7.8,50,0.00,,SCT043,0.00,VWS V14.01,2013-02-13 11:17:00,
2013-02-13 06:22:00,38.7,21.6,29.85,NE,45,3.1,7.8,50,0.00,,SCT043,0.00,VWS V14.01,2013-02-13 11:22:00,
2013-02-13 06:27:00,38.7,21.6,29.85,NNE,22,2.9,7.8,50,0.00,,SCT043,0.00,VWS V14.01,2013-02-13 11:27:00,
2013-02-13 06:32:00,38.7,21.6,29.85,NNE,22,4.3,7.8,50,0.00,,SCT043,0.00,VWS V14.01,2013-02-13 11:32:00,
2013-02-13 06:37:00,38.7,21.6,29.85,NNW,338,4.9,7.8,50,0.00,,SCT043,0.00,VWS V14.01,2013-02-13 11:37:00,
2013-02-13 06:42:00,38.5,21.5,29.82,NNW,338,3.4,7.8,50,0.00,,SCT043,0.00,VWS V14.01,2013-02-13 11:42:00,
2013-02-13 06:47:00,38.7,22.1,29.82,NNE,22,3.4,7.8,51,0.00,,SCT043,0.00,VWS V14.01,2013-02-13 11:47:00,
2013-02-13 06:52:00,38.7,21.6,29.85,NNW,338,4.7,7.8,50,0.00,,SCT043,0.00,VWS V14.01,2013-02-13 11:52:00,
2013-02-13 06:57:00,38.7,21.6,29.85,NW,315,2.5,4.3,50,0.00,,SCT043,0.00,VWS V14.01,2013-02-13 11:57:00,
2013-02-13 07:02:00,38.5,21.5,29.85,NNW,338,2.9,4.5,50,0.00,,OVC049,0.00,VWS V14.01,2013-02-13 12:02:00,
2013-02-13 07:07:00,38.5,21.9,29.85,NNE,22,1.3,6.9,51,0.00,,OVC049,0.00,VWS V14.01,2013-02-13 12:07:00,
2013-02-13 07:12:00,38.5,21.9,29.85,NNW,338,4.3,6.9,51,0.00,,OVC049,0.00,VWS V14.01,2013-02-13 12:12:00,
2013-02-13 07:17:00,38.5,21.9,29.85,NNW,338,1.3,6.9,51,0.00,,OVC049,0.00,VWS V14.01,2013-02-13 12:17:00,
2013-02-13 07:22:00,38.5,21.9,29.85,NNW,338,5.8,6.9,51,0.00,,OVC049,0.00,VWS V14.01,2013-02-13 12:22:00,
2013-02-13 07:27:00,38.3,21.8,29.85,NNE,22,2.5,6.9,51,0.00,,OVC049,0.00,VWS V14.01,2013-02-13 12:27:00,
2013-02-13 07:32:00,38.3,22.2,29.85,NNE,22,3.6,6.9,52,0.00,,,0.00,VWS V14.01,2013-02-13 12:32:00,
2013-02-13 07:37:00,38.1,22.1,29.85,NNW,338,4.0,6.9,52,0.00,,,0.00,VWS V14.01,2013-02-13 12:37:00,
2013-02-13 07:42:00,38.1,22.1,29.85,ENE,68,2.0,6.9,52,0.00,,,0.00,VWS V14.01,2013-02-13 12:42:00,
2013-02-13 07:47:00,38.1,22.1,29.85,NW,315,4.0,6.9,52,0.00,,,0.00,VWS V14.01,2013-02-13 12:47:00,
2013-02-13 07:52:00,38.1,21.6,29.88,NNW,338,7.8,7.8,51,0.00,,,0.00,VWS V14.01,2013-02-13 12:52:00,
2013-02-13 07:57:00,37.9,21.4,29.88,NNE,22,6.0,6.0,51,0.00,,,0.00,VWS V14.01,2013-02-13 12:57:00,
2013-02-13 08:02:00,38.1,21.6,29.88,NNW,338,4.0,6.5,51,0.00,,OVC055,0.00,VWS V14.01,2013-02-13 13:02:00,
2013-02-13 08:07:00,38.1,21.6,29.88,NNW,338,4.0,8.7,51,0.00,,OVC055,0.00,VWS V14.01,2013-02-13 13:07:00,
2013-02-13 08:12:00,38.1,22.1,29.88,NNE,22,2.9,8.7,52,0.00,,OVC055,0.00,VWS V14.01,2013-02-13 13:12:00,
2013-02-13 08:17:00,38.1,22.1,29.88,NNW,338,5.4,8.7,52,0.00,,OVC055,0.00,VWS V14.01,2013-02-13 13:17:00,
2013-02-13 08:22:00,38.3,21.8,29.91,NNE,22,4.9,8.7,51,0.00,,OVC055,0.00,VWS V14.01,2013-02-13 13:22:00,
2013-02-13 08:27:00,38.3,21.8,29.91,NNW,338,3.4,11.0,51,0.00,,OVC055,0.00,VWS V14.01,2013-02-13 13:27:00,
2013-02-13 08:32:00,38.3,21.3,29.91,WNW,292,3.8,11.0,50,0.00,,OVC055,0.00,VWS V14.01,2013-02-13 13:32:00,
2013-02-13 08:37:00,38.3,21.8,29.91,NNE,22,4.9,11.0,51,0.00,,OVC055,0.00,VWS V14.01,2013-02-13 13:37:00,
2013-02-13 08:42:00,38.3,21.8,29.91,NNE,22,6.0,11.0,51,0.00,,OVC055,0.00,VWS V14.01,2013-02-13 13:42:00,
2013-02-13 08:47:00,38.3,21.3,29.91,NNW,338,3.8,11.0,50,0.00,,OVC055,0.00,VWS V14.01,2013-02-13 13:47:00,
2013-02-13 08:52:00,38.3,21.3,29.91,NNE,22,3.6,11.0,50,0.00,,OVC055,0.00,VWS V14.01,2013-02-13 13:52:00,
2013-02-13 08:57:00,38.3,21.3,29.91,ENE,68,3.4,5.8,50,0.00,,OVC055,0.00,VWS V14.01,2013-02-13 13:57:00,
2013-02-13 09:02:00,38.3,21.8,29.91,NNW,338,5.6,6.5,51,0.00,,,0.00,VWS V14.01,2013-02-13 14:02:00,
2013-02-13 09:07:00,38.1,22.5,29.91,NNE,22,5.8,8.1,53,0.00,,,0.00,VWS V14.01,2013-02-13 14:07:00,
2013-02-13 09:12:00,38.1,23.0,29.91,NNW,338,7.4,8.1,54,0.00,,,0.00,VWS V14.01,2013-02-13 14:12:00,
2013-02-13 09:17:00,37.9,23.7,29.91,NNE,22,3.4,9.6,56,0.00,,,0.00,VWS V14.01,2013-02-13 14:17:00,
2013-02-13 09:22:00,37.8,24.3,29.91,NNW,338,5.4,9.6,58,0.00,,,0.00,VWS V14.01,2013-02-13 14:22:00,
2013-02-13 09:27:00,37.4,24.4,29.91,NNW,338,3.4,9.6,59,0.00,,,0.00,VWS V14.01,2013-02-13 14:27:00,
2013-02-13 09:32:00,37.0,24.5,29.91,NNW,338,3.8,9.6,60,0.00,,,0.00,VWS V14.01,2013-02-13 14:32:00,
2013-02-13 09:37:00,36.9,24.7,29.91,NNE,22,3.6,9.6,61,0.00,,,0.00,VWS V14.01,2013-02-13 14:37:00,
2013-02-13 09:42:00,36.5,24.3,29.91,North,0,7.4,9.6,61,0.00,,,0.00,VWS V14.01,2013-02-13 14:42:00,
2013-02-13 09:47:00,36.3,25.0,29.91,NNE,22,3.8,9.6,63,0.00,,,0.00,VWS V14.01,2013-02-13 14:47:00,
2013-02-13 09:52:00,36.0,24.6,29.91,NNE,22,3.4,9.6,63,0.00,,,0.00,VWS V14.01,2013-02-13 14:52:00,
2013-02-13 09:57:00,35.8,24.4,29.91,NNW,338,3.8,3.8,63,0.00,,,0.00,VWS V14.01,2013-02-13 14:57:00,
2013-02-13 10:02:00,35.6,25.0,29.91,North,0,6.3,8.5,65,0.00,,,0.00,VWS V14.01,2013-02-13 15:02:00,
2013-02-13 10:07:00,35.4,25.6,29.88,NNE,22,3.8,8.5,67,0.00,,,0.00,VWS V14.01,2013-02-13 15:07:00,
2013-02-13 10:12:00,35.4,25.9,29.88,North,0,5.6,10.3,68,0.00,,,0.00,VWS V14.01,2013-02-13 15:12:00,
2013-02-13 10:17:00,35.4,25.6,29.88,NNE,22,4.3,10.3,67,0.00,,,0.00,VWS V14.01,2013-02-13 15:17:00,
2013-02-13 10:22:00,35.4,25.2,29.88,NNE,22,3.4,10.3,66,0.00,,,0.00,VWS V14.01,2013-02-13 15:22:00,
2013-02-13 10:27:00,35.4,25.2,29.88,NNW,338,7.2,10.3,66,0.00,,,0.00,VWS V14.01,2013-02-13 15:27:00,
2013-02-13 10:32:00,35.2,25.0,29.88,NNE,22,3.6,10.3,66,0.00,,,0.00,VWS V14.01,2013-02-13 15:32:00,
2013-02-13 10:37:00,35.2,25.0,29.88,NNW,338,3.4,10.3,66,0.00,,,0.00,VWS V14.01,2013-02-13 15:37:00,
2013-02-13 10:42:00,35.2,25.8,29.88,WNW,292,3.6,10.3,68,0.00,,,0.00,VWS V14.01,2013-02-13 15:42:00,
2013-02-13 10:47:00,35.1,25.6,29.88,NNE,22,2.5,10.3,68,0.00,,,0.00,VWS V14.01,2013-02-13 15:47:00,
2013-02-13 10:52:00,35.1,25.6,29.88,North,0,4.3,10.3,68,0.00,,,0.00,VWS V14.01,2013-02-13 15:52:00,
2013-02-13 10:57:00,35.1,26.3,29.88,NNW,338,5.6,5.6,70,0.00,,,0.00,VWS V14.01,2013-02-13 15:57:00,
2013-02-13 11:02:00,34.9,26.5,29.88,NNE,22,1.3,5.6,71,0.00,,,0.00,VWS V14.01,2013-02-13 16:02:00,
2013-02-13 11:07:00,34.9,26.8,29.91,NW,315,2.9,5.6,72,0.00,,,0.00,VWS V14.01,2013-02-13 16:07:00,
2013-02-13 11:12:00,34.9,26.8,29.91,NNW,338,2.0,5.6,72,0.00,,,0.00,VWS V14.01,2013-02-13 16:12:00,
2013-02-13 11:17:00,34.7,27.0,29.91,NNW,338,2.5,5.6,73,0.00,,,0.00,VWS V14.01,2013-02-13 16:17:00,
2013-02-13 11:22:00,34.7,27.0,29.91,NNW,338,1.1,5.6,73,0.00,,,0.00,VWS V14.01,2013-02-13 16:22:00,
2013-02-13 11:27:00,34.9,27.5,29.91,NNW,338,0.0,5.6,74,0.00,,,0.00,VWS V14.01,2013-02-13 16:27:00,
2013-02-13 11:32:00,35.1,27.6,29.91,NNW,338,0.0,5.6,74,0.00,,,0.00,VWS V14.01,2013-02-13 16:32:00,
2013-02-13 11:37:00,35.2,27.8,29.91,NNW,338,1.6,5.6,74,0.00,,,0.00,VWS V14.01,2013-02-13 16:37:00,
2013-02-13 11:42:00,35.4,28.0,29.91,NNW,338,2.0,5.6,74,0.00,,,0.00,VWS V14.01,2013-02-13 16:42:00,
2013-02-13 11:47:00,35.6,28.1,29.91,NNW,338,0.0,5.6,74,0.00,,,0.00,VWS V14.01,2013-02-13 16:47:00,
2013-02-13 11:52:00,36.0,28.5,29.91,NNW,338,0.0,5.6,74,0.00,,,0.00,VWS V14.01,2013-02-13 16:52:00,
2013-02-13 11:57:00,36.1,28.7,29.91,NNW,338,0.0,0.0,74,0.00,,,0.00,VWS V14.01,2013-02-13 16:57:00,
2013-02-13 12:02:00,36.5,29.0,29.91,NNW,338,0.0,0.0,74,0.00,,,0.00,VWS V14.01,2013-02-13 17:02:00,
2013-02-13 12:07:00,36.9,29.7,29.91,NNW,338,0.0,0.0,75,0.00,,,0.00,VWS V14.01,2013-02-13 17:07:00,
2013-02-13 12:12:00,37.2,29.7,29.91,NNW,338,0.0,0.0,74,0.00,,,0.00,VWS V14.01,2013-02-13 17:12:00,
2013-02-13 12:17:00,37.4,29.5,29.91,NNW,338,2.0,2.0,73,0.00,,,0.00,VWS V14.01,2013-02-13 17:17:00,
2013-02-13 12:22:00,37.8,29.6,29.91,NNW,338,2.2,2.5,72,0.00,,,0.00,VWS V14.01,2013-02-13 17:22:00,
2013-02-13 12:27:00,37.8,29.6,29.91,NNW,338,2.2,2.5,72,0.00,,,0.00,VWS V14.01,2013-02-13 17:27:00,
2013-02-13 12:32:00,37.6,29.0,29.91,NNW,338,2.5,3.1,71,0.00,,,0.00,VWS V14.01,2013-02-13 17:32:00,
2013-02-13 12:37:00,37.8,29.2,29.91,North,0,3.1,3.1,71,0.00,,,0.00,VWS V14.01,2013-02-13 17:37:00,
2013-02-13 12:42:00,37.9,29.4,29.91,WNW,292,0.9,3.1,71,0.04,,,0.04,VWS V14.01,2013-02-13 17:42:00,
2013-02-13 12:47:00,37.9,29.0,29.91,NW,315,2.5,4.5,70,0.04,,,0.04,VWS V14.01,2013-02-13 17:47:00,
2013-02-13 12:52:00,38.1,29.6,29.91,WNW,292,1.3,4.5,71,0.04,,,0.04,VWS V14.01,2013-02-13 17:52:00,
2013-02-13 12:57:00,38.3,29.7,29.91,NNW,338,2.7,2.9,71,0.04,,,0.04,VWS V14.01,2013-02-13 17:57:00,
2013-02-13 13:02:00,38.1,29.6,29.91,NNW,338,1.3,2.9,71,0.08,,,0.08,VWS V14.01,2013-02-13 18:02:00,
2013-02-13 13:07:00,38.7,30.4,29.91,WNW,292,2.5,2.9,72,0.08,,,0.08,VWS V14.01,2013-02-13 18:07:00,
2013-02-13 13:12:00,38.7,30.1,29.91,NNW,338,0.0,2.9,71,0.08,,,0.08,VWS V14.01,2013-02-13 18:12:00,
2013-02-13 13:17:00,39.0,30.4,29.91,NW,315,1.3,2.9,71,0.08,,,0.08,VWS V14.01,2013-02-13 18:17:00,
2013-02-13 13:22:00,39.2,30.6,29.91,WNW,292,2.0,2.9,71,0.08,,,0.08,VWS V14.01,2013-02-13 18:22:00,
2013-02-13 13:27:00,39.6,31.3,29.91,SSW,202,1.6,2.9,72,0.08,,,0.08,VWS V14.01,2013-02-13 18:27:00,
2013-02-13 13:32:00,39.9,32.0,29.91,SSW,202,3.6,3.6,73,0.08,,,0.08,VWS V14.01,2013-02-13 18:32:00,
2013-02-13 13:37:00,40.3,32.3,29.91,SW,225,1.3,3.6,73,0.08,,,0.08,VWS V14.01,2013-02-13 18:37:00,
2013-02-13 13:42:00,40.6,33.0,29.91,WSW,248,1.1,3.6,74,0.08,,,0.08,VWS V14.01,2013-02-13 18:42:00,
2013-02-13 13:47:00,41.0,33.0,29.91,SSW,202,1.3,3.6,73,0.08,,,0.08,VWS V14.01,2013-02-13 18:47:00,
2013-02-13 13:52:00,41.4,33.4,29.91,SE,135,2.2,3.6,73,0.08,,,0.08,VWS V14.01,2013-02-13 18:52:00,
2013-02-13 13:57:00,41.5,33.5,29.91,SW,225,1.6,2.5,73,0.04,,,0.08,VWS V14.01,2013-02-13 18:57:00,
2013-02-13 14:02:00,41.5,33.2,29.91,SW,225,3.4,3.4,72,0.04,,,0.08,VWS V14.01,2013-02-13 19:02:00,
2013-02-13 14:07:00,41.7,33.0,29.91,South,180,1.6,3.6,71,0.04,,,0.08,VWS V14.01,2013-02-13 19:07:00,
2013-02-13 14:12:00,42.1,34.1,29.91,SSE,158,3.4,4.0,73,0.04,,,0.08,VWS V14.01,2013-02-13 19:12:00,
2013-02-13 14:17:00,42.3,33.9,29.91,SSW,202,3.1,4.0,72,0.04,,,0.08,VWS V14.01,2013-02-13 19:17:00,
2013-02-13 14:22:00,42.6,34.2,29.88,WSW,248,2.7,4.0,72,0.04,,,0.08,VWS V14.01,2013-02-13 19:22:00,
2013-02-13 14:27:00,42.6,32.8,29.88,West,270,2.2,4.0,68,0.04,,,0.08,VWS V14.01,2013-02-13 19:27:00,
2013-02-13 14:32:00,42.8,32.6,29.88,South,180,3.6,4.0,67,0.04,,OVC014,0.08,VWS V14.01,2013-02-13 19:32:00,
2013-02-13 14:37:00,43.0,32.4,29.88,South,180,2.7,4.0,66,0.04,,OVC014,0.08,VWS V14.01,2013-02-13 19:37:00,
2013-02-13 14:42:00,43.2,31.8,29.88,NNW,338,3.8,4.0,64,0.04,,OVC014,0.08,VWS V14.01,2013-02-13 19:42:00,
2013-02-13 14:47:00,43.2,30.6,29.88,NW,315,0.9,4.3,61,0.04,,OVC014,0.08,VWS V14.01,2013-02-13 19:47:00,
2013-02-13 14:52:00,43.3,30.0,29.88,NNW,338,3.8,5.8,59,0.04,,OVC014,0.08,VWS V14.01,2013-02-13 19:52:00,
2013-02-13 14:57:00,43.7,30.7,29.88,WNW,292,3.1,3.4,60,0.00,,OVC014,0.08,VWS V14.01,2013-02-13 19:57:00,
2013-02-13 15:02:00,44.2,31.7,29.88,West,270,3.1,3.8,61,0.00,,OVC014,0.08,VWS V14.01,2013-02-13 20:02:00,
2013-02-13 15:07:00,44.4,30.6,29.88,NNW,338,3.6,4.7,58,0.00,,OVC014,0.08,VWS V14.01,2013-02-13 20:07:00,
2013-02-13 15:12:00,44.2,29.5,29.88,North,0,2.7,4.7,56,0.00,,OVC014,0.08,VWS V14.01,2013-02-13 20:12:00,
2013-02-13 15:17:00,44.2,29.1,29.88,WSW,248,1.6,4.7,55,0.00,,BKN055,0.08,VWS V14.01,2013-02-13 20:17:00,
2013-02-13 15:22:00,44.4,29.3,29.91,West,270,3.4,4.7,55,0.00,,BKN055,0.08,VWS V14.01,2013-02-13 20:22:00,
2013-02-13 15:27:00,44.4,29.3,29.91,WSW,248,2.0,4.7,55,0.00,,BKN055,0.08,VWS V14.01,2013-02-13 20:27:00,
2013-02-13 15:32:00,44.6,29.0,29.91,NW,315,2.7,4.7,54,0.00,,BKN055,0.08,VWS V14.01,2013-02-13 20:32:00,
2013-02-13 15:37:00,44.6,28.1,29.91,West,270,0.9,4.7,52,0.00,,BKN055,0.08,VWS V14.01,2013-02-13 20:37:00,
2013-02-13 15:42:00,45.0,28.9,29.91,WNW,292,4.0,4.7,53,0.00,,BKN055,0.08,VWS V14.01,2013-02-13 20:42:00,
2013-02-13 15:47:00,44.8,27.8,29.91,WSW,248,3.6,4.7,51,0.00,,BKN055,0.08,VWS V14.01,2013-02-13 20:47:00,
2013-02-13 15:52:00,44.2,27.3,29.91,WSW,248,2.9,4.7,51,0.00,,BKN055,0.08,VWS V14.01,2013-02-13 20:52:00,
2013-02-13 15:57:00,44.2,27.3,29.91,West,270,2.0,2.7,51,0.00,,BKN055,0.08,VWS V14.01,2013-02-13 20:57:00,
2013-02-13 16:02:00,44.2,26.8,29.91,WSW,248,3.6,3.8,50,0.00,,BKN055,0.08,VWS V14.01,2013-02-13 21:02:00,
2013-02-13 16:07:00,44.2,26.8,29.91,SW,225,2.5,4.3,50,0.00,,BKN055,0.08,VWS V14.01,2013-02-13 21:07:00,
2013-02-13 16:12:00,44.6,26.6,29.91,West,270,5.6,5.6,49,0.00,,BKN055,0.08,VWS V14.01,2013-02-13 21:12:00,
2013-02-13 16:17:00,44.8,26.8,29.91,West,270,2.2,5.6,49,0.00,,BKN021,0.08,VWS V14.01,2013-02-13 21:17:00,
2013-02-13 16:22:00,44.8,26.8,29.88,WSW,248,2.0,5.6,49,0.00,,BKN021,0.08,VWS V14.01,2013-02-13 21:22:00,
2013-02-13 16:27:00,45.0,26.5,29.88,WNW,292,1.6,5.6,48,0.00,,BKN021,0.08,VWS V14.01,2013-02-13 21:27:00,
2013-02-13 16:32:00,45.1,26.6,29.88,NNW,338,3.4,5.6,48,0.00,,BKN021,0.08,VWS V14.01,2013-02-13 21:32:00,
2013-02-13 16:37:00,45.0,26.0,29.88,WNW,292,3.4,5.6,47,0.00,,BKN021,0.08,VWS V14.01,2013-02-13 21:37:00,
2013-02-13 16:42:00,45.0,25.4,29.91,WNW,292,3.4,5.6,46,0.00,,BKN021,0.08,VWS V14.01,2013-02-13 21:42:00,
2013-02-13 16:47:00,45.0,24.9,29.91,WSW,248,2.9,5.6,45,0.00,,BKN021,0.08,VWS V14.01,2013-02-13 21:47:00,
2013-02-13 16:52:00,45.0,25.4,29.88,SW,225,1.6,5.6,46,0.00,,BKN021,0.08,VWS V14.01,2013-02-13 21:52:00,
2013-02-13 16:57:00,44.8,24.8,29.88,West,270,1.3,3.1,45,0.00,,BKN021,0.08,VWS V14.01,2013-02-13 21:57:00,
2013-02-13 17:02:00,44.6,24.6,29.88,WNW,292,1.6,3.4,45,0.00,,BKN021,0.08,VWS V14.01,2013-02-13 22:02:00,
2013-02-13 17:07:00,44.2,24.8,29.88,WSW,248,1.6,4.5,46,0.00,,BKN021,0.08,VWS V14.01,2013-02-13 22:07:00,
2013-02-13 17:12:00,44.2,25.3,29.91,SSW,202,2.7,4.5,47,0.00,,BKN021,0.08,VWS V14.01,2013-02-13 22:12:00,
2013-02-13 17:17:00,44.2,25.3,29.91,SW,225,1.3,4.5,47,0.00,,BKN022,0.08,VWS V14.01,2013-02-13 22:17:00,
2013-02-13 17:22:00,44.1,25.1,29.91,West,270,1.6,4.7,47,0.00,,BKN022,0.08,VWS V14.01,2013-02-13 22:22:00,
2013-02-13 17:27:00,43.9,24.5,29.91,WNW,292,4.9,4.9,46,0.00,,BKN022,0.08,VWS V14.01,2013-02-13 22:27:00,
2013-02-13 17:32:00,43.5,24.1,29.91,WSW,248,3.4,4.9,46,0.00,,BKN022,0.08,VWS V14.01,2013-02-13 22:32:00,
2013-02-13 17:37:00,43.3,24.5,29.91,West,270,2.5,4.9,47,0.00,,BKN022,0.08,VWS V14.01,2013-02-13 22:37:00,
2013-02-13 17:42:00,43.0,24.1,29.91,West,270,2.2,4.9,47,0.00,,BKN022,0.08,VWS V14.01,2013-02-13 22:42:00,
2013-02-13 17:47:00,42.8,24.0,29.91,WNW,292,2.5,4.9,47,0.00,,BKN022,0.08,VWS V14.01,2013-02-13 22:47:00,
2013-02-13 17:52:00,42.6,24.3,29.94,SW,225,2.7,4.9,48,0.00,,BKN022,0.08,VWS V14.01,2013-02-13 22:52:00,
2013-02-13 17:57:00,42.3,24.5,29.94,WSW,248,2.0,3.4,49,0.00,,BKN022,0.08,VWS V14.01,2013-02-13 22:57:00,
2013-02-13 18:02:00,42.1,24.3,29.94,WSW,248,1.3,3.4,49,0.00,,BKN022,0.08,VWS V14.01,2013-02-13 23:02:00,
2013-02-13 18:07:00,41.9,24.1,29.94,WNW,292,2.0,3.4,49,0.00,,BKN022,0.08,VWS V14.01,2013-02-13 23:07:00,
2013-02-13 18:12:00,41.5,23.8,29.94,SW,225,1.6,3.4,49,0.00,,BKN022,0.08,VWS V14.01,2013-02-13 23:12:00,
2013-02-13 18:17:00,41.2,23.5,29.94,WSW,248,3.1,3.4,49,0.00,,BKN025,0.08,VWS V14.01,2013-02-13 23:17:00,
2013-02-13 18:22:00,41.0,23.8,29.94,SW,225,2.0,3.4,50,0.00,,BKN025,0.08,VWS V14.01,2013-02-13 23:22:00,
2013-02-13 18:27:00,40.8,23.6,29.94,WSW,248,2.2,4.0,50,0.00,,BKN025,0.08,VWS V14.01,2013-02-13 23:27:00,
2013-02-13 18:32:00,40.6,23.9,29.94,WSW,248,2.9,4.3,51,0.00,,BKN025,0.08,VWS V14.01,2013-02-13 23:32:00,
2013-02-13 18:37:00,40.3,23.6,29.94,SW,225,1.3,4.3,51,0.00,,BKN025,0.08,VWS V14.01,2013-02-13 23:37:00,
2013-02-13 18:42:00,40.1,23.9,29.94,WSW,248,1.6,4.3,52,0.00,,BKN025,0.08,VWS V14.01,2013-02-13 23:42:00,
2013-02-13 18:47:00,39.9,24.2,29.94,SW,225,1.6,4.3,53,0.00,,BKN025,0.08,VWS V14.01,2013-02-13 23:47:00,
2013-02-13 18:52:00,39.7,24.0,29.94,SSW,202,3.6,4.3,53,0.00,,BKN025,0.08,VWS V14.01,2013-02-13 23:52:00,
2013-02-13 18:57:00,39.6,23.9,29.94,West,270,2.2,2.5,53,0.00,,BKN025,0.08,VWS V14.01,2013-02-13 23:57:00,
2013-02-13 19:02:00,39.4,24.1,29.94,WSW,248,1.3,2.9,54,0.00,,BKN025,0.08,VWS V14.01,2013-02-14 00:02:00,
2013-02-13 19:07:00,39.2,24.0,29.94,SW,225,2.2,2.9,54,0.00,,BKN025,0.08,VWS V14.01,2013-02-14 00:07:00,
2013-02-13 19:12:00,39.0,24.2,29.94,WSW,248,1.3,2.9,55,0.00,,BKN025,0.08,VWS V14.01,2013-02-14 00:12:00,
2013-02-13 19:17:00,38.7,23.9,29.94,West,270,2.2,2.9,55,0.00,,SCT022,0.08,VWS V14.01,2013-02-14 00:17:00,
2013-02-13 19:22:00,38.7,23.9,29.97,SW,225,1.6,2.9,55,0.00,,SCT022,0.08,VWS V14.01,2013-02-14 00:22:00,
2013-02-13 19:27:00,38.5,23.7,29.97,SW,225,0.0,2.9,55,0.00,,SCT022,0.08,VWS V14.01,2013-02-14 00:27:00,
2013-02-13 19:32:00,38.5,24.2,29.97,SW,225,2.0,2.9,56,0.00,,SCT022,0.08,VWS V14.01,2013-02-14 00:32:00,
2013-02-13 19:37:00,38.3,24.0,29.97,SW,225,2.0,3.4,56,0.00,,SCT022,0.08,VWS V14.01,2013-02-14 00:37:00,
2013-02-13 19:42:00,38.1,24.2,29.97,SW,225,1.3,3.4,57,0.00,,SCT022,0.08,VWS V14.01,2013-02-14 00:42:00,
2013-02-13 19:47:00,38.1,24.7,29.97,WSW,248,1.1,3.4,58,0.00,,SCT022,0.08,VWS V14.01,2013-02-14 00:47:00,
2013-02-13 19:52:00,37.9,24.5,29.97,WSW,248,2.9,4.0,58,0.00,,SCT022,0.08,VWS V14.01,2013-02-14 00:52:00,
2013-02-13 19:57:00,37.9,24.9,29.97,SW,225,2.5,2.9,59,0.00,,SCT022,0.08,VWS V14.01,2013-02-14 00:57:00,
2013-02-13 20:02:00,37.9,25.3,29.97,SW,225,1.6,3.4,60,0.00,,SCT021,0.08,VWS V14.01,2013-02-14 01:02:00,
2013-02-13 20:07:00,37.8,25.1,29.97,SW,225,1.1,3.4,60,0.00,,SCT021,0.08,VWS V14.01,2013-02-14 01:07:00,
2013-02-13 20:12:00,37.6,25.0,29.97,WSW,248,2.0,3.4,60,0.00,,SCT021,0.08,VWS V14.01,2013-02-14 01:12:00,
2013-02-13 20:17:00,37.6,25.4,29.97,SSW,202,1.3,3.4,61,0.00,,SCT021,0.08,VWS V14.01,2013-02-14 01:17:00,
2013-02-13 20:22:00,37.4,25.6,29.97,SSW,202,1.6,3.4,62,0.00,,SCT021,0.08,VWS V14.01,2013-02-14 01:22:00,
2013-02-13 20:27:00,37.2,25.8,29.97,WSW,248,2.0,3.4,63,0.00,,SCT021,0.08,VWS V14.01,2013-02-14 01:27:00,
2013-02-13 20:32:00,37.0,25.2,29.97,SSW,202,2.7,3.4,62,0.00,,SCT021,0.08,VWS V14.01,2013-02-14 01:32:00,
2013-02-13 20:37:00,37.0,25.6,29.97,WSW,248,2.5,3.4,63,0.00,,SCT021,0.08,VWS V14.01,2013-02-14 01:37:00,
2013-02-13 20:42:00,36.9,25.5,29.97,SW,225,1.6,3.4,63,0.00,,SCT021,0.08,VWS V14.01,2013-02-14 01:42:00,
2013-02-13 20:47:00,36.9,25.5,29.97,SSW,202,2.7,3.4,63,0.00,,SCT021,0.08,VWS V14.01,2013-02-14 01:47:00,
2013-02-13 20:52:00,36.7,25.7,29.97,SW,225,2.2,3.4,64,0.00,,SCT021,0.08,VWS V14.01,2013-02-14 01:52:00,
2013-02-13 20:57:00,36.7,26.0,29.97,WSW,248,2.5,2.7,65,0.00,,SCT021,0.08,VWS V14.01,2013-02-14 01:57:00,
2013-02-13 21:02:00,36.7,26.0,29.97,SSW,202,2.0,2.7,65,0.00,,SCT021,0.08,VWS V14.01,2013-02-14 02:02:00,
2013-02-13 21:07:00,36.3,25.7,29.97,SSW,202,1.6,2.7,65,0.00,,SCT021,0.08,VWS V14.01,2013-02-14 02:07:00,
2013-02-13 21:12:00,36.3,25.7,29.97,SSW,202,1.6,2.7,65,0.00,,SCT021,0.08,VWS V14.01,2013-02-14 02:12:00,
2013-02-13 21:17:00,36.1,25.5,29.97,SSW,202,1.6,2.7,65,0.00,,CLR,0.08,VWS V14.01,2013-02-14 02:17:00,
2013-02-13 21:22:00,36.1,25.9,29.97,South,180,2.2,2.7,66,0.00,,CLR,0.08,VWS V14.01,2013-02-14 02:22:00,
2013-02-13 21:27:00,36.1,25.9,29.97,South,180,2.0,2.7,66,0.00,,CLR,0.08,VWS V14.01,2013-02-14 02:27:00,
2013-02-13 21:32:00,36.0,26.1,29.97,South,180,0.0,2.7,67,0.00,,CLR,0.08,VWS V14.01,2013-02-14 02:32:00,
2013-02-13 21:37:00,35.8,25.9,30.00,South,180,1.1,2.7,67,0.00,,CLR,0.08,VWS V14.01,2013-02-14 02:37:00,
2013-02-13 21:42:00,35.6,25.7,30.00,South,180,0.0,2.7,67,0.00,,CLR,0.08,VWS V14.01,2013-02-14 02:42:00,
2013-02-13 21:47:00,35.6,25.7,30.00,SSW,202,1.6,2.7,67,0.00,,CLR,0.08,VWS V14.01,2013-02-14 02:47:00,
2013-02-13 21:52:00,35.4,25.9,30.00,SSW,202,0.0,2.7,68,0.00,,CLR,0.08,VWS V14.01,2013-02-14 02:52:00,
2013-02-13 21:57:00,35.4,25.9,30.00,South,180,0.0,1.3,68,0.00,,CLR,0.08,VWS V14.01,2013-02-14 02:57:00,
2013-02-13 22:02:00,35.2,25.8,30.00,South,180,1.1,1.6,68,0.00,,CLR,0.08,VWS V14.01,2013-02-14 03:02:00,
2013-02-13 22:07:00,35.2,26.1,30.00,South,180,0.0,1.6,69,0.00,,CLR,0.08,VWS V14.01,2013-02-14 03:07:00,
2013-02-13 22:12:00,35.1,25.9,30.00,South,180,0.0,1.6,69,0.00,,CLR,0.08,VWS V14.01,2013-02-14 03:12:00,
2013-02-13 22:17:00,35.1,26.3,30.00,South,180,0.0,1.6,70,0.00,,CLR,0.08,VWS V14.01,2013-02-14 03:17:00,
2013-02-13 22:22:00,35.1,25.9,29.97,South,180,0.0,1.6,69,0.00,,CLR,0.08,VWS V14.01,2013-02-14 03:22:00,
2013-02-13 22:27:00,35.1,26.3,29.97,South,180,0.0,1.6,70,0.00,,CLR,0.08,VWS V14.01,2013-02-14 03:27:00,
2013-02-13 22:32:00,34.9,26.1,29.97,South,180,0.0,1.6,70,0.00,,CLR,0.08,VWS V14.01,2013-02-14 03:32:00,
2013-02-13 22:37:00,34.7,26.3,29.97,South,180,0.0,1.6,71,0.00,,CLR,0.08,VWS V14.01,2013-02-14 03:37:00,
2013-02-13 22:42:00,34.7,26.3,29.97,South,180,0.0,1.6,71,0.00,,CLR,0.08,VWS V14.01,2013-02-14 03:42:00,
2013-02-13 22:47:00,34.5,26.1,29.97,SSW,202,0.0,2.0,71,0.00,,CLR,0.08,VWS V14.01,2013-02-14 03:47:00,
2013-02-13 22:52:00,34.5,26.1,29.97,SSW,202,0.0,2.0,71,0.00,,CLR,0.08,VWS V14.01,2013-02-14 03:52:00,
2013-02-13 22:57:00,34.5,26.1,29.97,SW,225,1.6,2.0,71,0.00,,CLR,0.08,VWS V14.01,2013-02-14 03:57:00,
2013-02-13 23:02:00,34.5,26.4,29.97,SSW,202,1.6,3.4,72,0.00,,CLR,0.08,VWS V14.01,2013-02-14 04:02:00,
2013-02-13 23:07:00,34.5,26.4,30.00,SSW,202,1.3,3.4,72,0.00,,CLR,0.08,VWS V14.01,2013-02-14 04:07:00,
2013-02-13 23:12:00,34.5,26.4,30.00,SSW,202,2.2,3.4,72,0.00,,CLR,0.08,VWS V14.01,2013-02-14 04:12:00,
2013-02-13 23:17:00,34.9,27.1,30.00,SSE,158,2.7,3.4,73,0.00,,CLR,0.08,VWS V14.01,2013-02-14 04:17:00,
2013-02-13 23:22:00,34.9,27.5,30.00,SSW,202,2.2,3.4,74,0.00,,CLR,0.08,VWS V14.01,2013-02-14 04:22:00,
2013-02-13 23:27:00,35.1,27.6,30.00,WSW,248,2.5,3.4,74,0.00,,CLR,0.08,VWS V14.01,2013-02-14 04:27:00,
2013-02-13 23:52:00,35.4,28.3,30.00,WSW,248,3.4,3.8,75,0.00,,CLR,0.08,VWS V14.01,2013-02-14 04:52:00,
2013-02-13 23:57:00,35.4,28.3,30.00,WSW,248,2.2,3.8,75,0.00,,CLR,0.00,VWS V14.01,2013-02-14 04:57:00,